Latest Weather Observations for Campania

IDT60901

Issued at 9:35 pm EDT Saturday 22 November 2014 (issued every 10 minutes, with the page automatically refreshed every 10 minutes)

About weather observations | Map of Hobart area stations | Latest observations for Hobart area | Other Formats
Station Details ID: 094212 Name: CAMPANIA (KINCORA) Lat: -42.69 Lon: 147.43 Height: 45.0 m
Data from the previous 72 hours. | See also: Recent months at Campania
Date/Time
EDT
Tmp

°C
App
Tmp
°C
Dew
Point
°C
Rel
Hum
%
Delta-T

°C
Wind Press
QNH
hPa
Press
MSL
hPa
Rain
since
9 am
mm
Dir
 
Spd
km/h
Gust
km/h
Spd
kts
Gust
kts
22/09:30pm 16.2 14.6 11.4 73 2.6 S 11 13 6 7 - - 0.0
22/09:00pm 18.4 16.0 11.5 64 3.8 N 15 20 8 11 - - 0.0
22/08:30pm 18.8 15.5 11.6 63 4.0 N 20 24 11 13 - - 0.0
22/08:00pm 20.0 17.6 11.5 58 4.7 N 15 19 8 10 - - 0.0
22/07:30pm 21.3 20.3 11.1 52 5.6 NNW 7 13 4 7 - - 0.0
22/07:00pm 21.5 19.3 10.9 51 5.8 N 13 17 7 9 - - 0.0
22/06:30pm 21.7 18.3 10.5 49 6.1 N 19 26 10 14 - - 0.0
22/06:00pm 22.8 17.9 9.9 44 7.0 NW 26 41 14 22 - - 0.0
22/05:30pm 22.2 19.0 10.0 46 6.6 N 17 22 9 12 - - 0.0
22/05:00pm 22.0 17.7 9.2 44 6.9 N 22 32 12 17 - - 0.0
22/04:30pm 22.9 18.3 9.7 43 7.2 N 24 33 13 18 - - 0.0
22/04:00pm 23.1 18.2 9.8 43 7.2 NNW 26 39 14 21 - - 0.0
22/03:30pm 21.9 15.4 10.4 48 6.3 N 35 48 19 26 - - 0.0
22/03:00pm 22.3 17.4 10.1 46 6.7 N 26 39 14 21 - - 0.0
22/02:30pm 22.1 18.6 10.9 49 6.2 NNE 20 30 11 16 - - 0.0
22/02:00pm 23.4 19.9 10.1 43 7.3 W 19 28 10 15 - - 0.0
22/01:30pm 23.5 20.1 10.6 44 7.1 NW 19 24 10 13 - - 0.0
22/01:00pm 22.4 17.9 9.9 45 6.8 WNW 24 37 13 20 - - 0.0
22/12:30pm 22.5 18.9 10.0 45 6.8 NW 19 33 10 18 - - 0.0
22/12:00pm 22.9 17.1 9.3 42 7.3 NW 30 41 16 22 - - 0.0
22/11:30am 22.4 18.3 8.5 41 7.4 N 20 37 11 20 - - 0.0
22/11:00am 21.0 16.3 7.6 42 6.9 N 22 30 12 16 - - 0.0
22/10:30am 20.1 15.0 7.8 45 6.3 N 24 30 13 16 - - 0.0
22/10:00am 17.2 12.4 7.3 52 5.0 N 22 32 12 17 - - 0.0
22/09:30am 16.5 10.0 6.6 52 4.9 N 30 37 16 20 - - 0.0
22/09:00am 15.9 9.8 6.6 54 4.6 N 28 37 15 20 - - 0.6
22/08:30am 14.9 11.6 6.2 56 4.2 NNE 13 30 7 16 - - 0.6
22/08:00am 13.2 10.6 6.3 63 3.3 N 9 15 5 8 - - 0.6
22/07:30am 11.3 8.9 7.0 75 2.1 NNW 9 11 5 6 - - 0.6
22/07:00am 10.4 8.7 7.5 82 1.4 NNW 6 7 3 4 - - 0.6
22/06:30am 9.6 7.4 6.3 80 1.5 NNW 7 11 4 6 - - 0.6
22/06:00am 7.8 6.5 5.9 88 0.9 ENE 2 7 1 4 - - 0.6
22/05:30am 8.1 5.6 6.6 90 0.7 NNW 9 13 5 7 - - 0.6
22/05:00am 8.2 5.5 5.7 84 1.1 NNW 9 15 5 8 - - 0.6
22/04:30am 7.2 4.4 5.3 88 0.8 N 9 13 5 7 - - 0.6
22/04:00am 8.1 4.8 6.6 90 0.7 N 13 17 7 9 - - 0.6
22/03:30am 7.9 4.9 6.0 88 0.9 N 11 17 6 9 - - 0.6
22/03:00am 9.0 6.3 7.5 90 0.7 N 11 13 6 7 - - 0.6
22/02:30am 8.2 5.5 7.3 94 0.4 N 11 15 6 8 - - 0.6
22/02:00am 6.2 5.2 5.6 96 0.3 CALM 0 0 0 0 - - 0.6
22/01:30am 7.3 4.8 6.7 96 0.3 N 9 13 5 7 - - 0.6
22/01:00am 6.4 3.8 6.0 97 0.2 NW 9 15 5 8 - - 0.6
22/12:30am 6.9 5.2 6.0 94 0.4 NNE 4 9 2 5 - - 0.6
22/12:00am 8.2 6.2 7.3 94 0.4 N 7 13 4 7 - - 0.6
 
Date/Time
EDT
Tmp

°C
App
Tmp
°C
Dew
Point
°C
Rel
Hum
%
Delta-T

°C
Wind Press
QNH
hPa
Press
MSL
hPa
Rain
since
9 am
mm
Dir
 
Spd
km/h
Gust
km/h
Spd
kts
Gust
kts
21/11:30pm 7.2 4.8 6.8 97 0.2 N 9 11 5 6 - - 0.6
21/11:00pm 7.0 4.4 6.3 95 0.3 NNW 9 11 5 6 - - 0.6
21/10:30pm 7.7 5.7 7.0 95 0.3 N 7 13 4 7 - - 0.6
21/10:00pm 8.3 6.3 7.1 92 0.6 WSW 7 9 4 5 - - 0.6
21/09:30pm 9.2 7.4 7.3 88 0.9 SSW 6 7 3 4 - - 0.6
21/09:00pm 9.7 7.4 7.5 86 1.0 SSW 9 11 5 6 - - 0.6
21/08:30pm 10.8 7.9 8.0 83 1.4 S 13 15 7 8 - - 0.6
21/08:00pm 11.9 9.4 8.0 77 1.9 S 11 13 6 7 - - 0.6
21/07:30pm 13.6 10.6 7.6 67 3.0 S 13 17 7 9 - - 0.6
21/07:00pm 14.6 11.6 7.6 63 3.5 S 13 17 7 9 - - 0.6
21/06:30pm 14.6 10.9 7.9 64 3.3 S 17 20 9 11 - - 0.6
21/06:00pm 14.7 10.9 7.7 63 3.5 S 17 20 9 11 - - 0.6
21/05:30pm 14.0 10.6 7.5 65 3.2 SSE 15 24 8 13 - - 0.6
21/05:00pm 15.4 11.8 8.4 63 3.5 SSE 17 24 9 13 - - 0.6
21/04:30pm 16.0 12.1 8.5 61 3.8 SSE 19 26 10 14 - - 0.6
21/04:00pm 15.0 11.4 8.3 64 3.4 SSE 17 24 9 13 - - 0.6
21/03:30pm 14.0 11.6 8.6 70 2.7 SE 11 15 6 8 - - 0.6
21/03:00pm 14.4 11.7 8.8 69 2.8 SE 13 20 7 11 - - 0.6
21/02:30pm 14.2 11.8 8.8 70 2.7 SE 11 19 6 10 - - 0.6
21/02:00pm 13.8 11.0 10.0 78 2.0 SE 15 20 8 11 - - 0.6
21/01:30pm 12.7 10.6 9.9 83 1.4 ESE 11 17 6 9 - - 0.6
21/01:00pm 12.1 9.4 10.5 90 0.8 SE 15 20 8 11 - - 0.6
21/12:30pm 11.6 9.2 10.2 91 0.7 SSE 13 19 7 10 - - 0.4
21/12:00pm 12.7 8.3 9.0 78 1.9 SSE 22 30 12 16 - - 0.0
21/11:30am 13.4 9.3 10.0 80 1.8 S 22 28 12 15 - - 0.0
21/11:00am 13.1 9.5 10.5 84 1.4 SE 20 28 11 15 - - 0.0
21/10:30am 13.4 9.0 10.4 82 1.6 SSE 24 35 13 19 - - 0.0
21/10:00am 13.9 10.7 11.2 84 1.4 SSE 19 28 10 15 - - 0.0
21/09:30am 13.8 10.6 12.0 89 1.0 SSE 20 26 11 14 - - 0.0
21/09:00am 13.6 10.3 11.5 87 1.1 SSE 20 24 11 13 - - 0.8
21/08:30am 14.0 12.1 11.9 87 1.1 SSE 13 20 7 11 - - 0.8
21/08:00am 14.1 12.5 12.7 91 0.8 SE 13 19 7 10 - - 0.8
21/07:30am 13.8 12.3 13.0 95 0.4 SSE 13 17 7 9 - - 0.8
21/07:00am 13.8 13.1 13.3 97 0.3 S 9 15 5 8 - - 0.8
21/06:30am 13.6 12.9 13.3 98 0.2 SSE 9 13 5 7 - - 0.8
21/06:00am 13.5 14.5 13.2 98 0.2 CALM 0 0 0 0 - - 0.8
21/05:30am 13.4 14.4 13.1 98 0.2 CALM 0 0 0 0 - - 0.8
21/05:00am 13.4 14.4 13.2 99 0.1 CALM 0 0 0 0 - - 0.8
21/04:30am 13.2 13.0 13.0 99 0.1 SSE 6 7 3 4 - - 0.8
21/04:00am 13.3 14.3 13.1 99 0.1 CALM 0 0 0 0 - - 0.8
21/03:30am 13.4 14.0 13.2 99 0.1 SSE 2 7 1 4 - - 0.8
21/03:00am 13.3 12.9 13.1 99 0.1 SSE 7 11 4 6 - - 0.8
21/02:30am 13.1 14.0 12.9 99 0.1 CALM 0 0 0 0 - - 0.8
21/02:00am 13.0 12.7 12.7 98 0.2 S 6 7 3 4 - - 0.8
21/01:30am 13.0 12.5 12.7 98 0.2 S 7 9 4 5 - - 0.8
21/01:00am 13.4 13.2 12.9 97 0.3 SSE 6 9 3 5 - - 0.8
21/12:30am 14.0 13.8 13.5 97 0.3 S 7 9 4 5 - - 0.8
21/12:00am 14.2 14.2 13.7 97 0.3 WNW 6 7 3 4 - - 0.8
 
Date/Time
EDT
Tmp

°C
App
Tmp
°C
Dew
Point
°C
Rel
Hum
%
Delta-T

°C
Wind Press
QNH
hPa
Press
MSL
hPa
Rain
since
9 am
mm
Dir
 
Spd
km/h
Gust
km/h
Spd
kts
Gust
kts
20/11:30pm 14.2 14.2 13.6 96 0.3 ENE 6 9 3 5 - - 0.8
20/11:00pm 14.3 15.5 13.7 96 0.3 CALM 0 0 0 0 - - 0.8
20/10:30pm 14.2 14.2 13.6 96 0.3 S 6 9 3 5 - - 0.8
20/10:00pm 14.1 14.8 13.5 96 0.3 S 2 7 1 4 - - 0.8
20/09:30pm 14.2 14.6 13.6 96 0.3 SE 4 7 2 4 - - 0.8
20/09:00pm 14.3 14.3 13.7 96 0.3 SSE 6 7 3 4 - - 0.8
20/08:30pm 14.3 14.3 13.7 96 0.3 SSW 6 7 3 4 - - 0.8
20/08:00pm 14.7 14.6 13.9 95 0.4 S 7 9 4 5 - - 0.8
20/07:30pm 15.0 15.1 14.0 94 0.6 SSE 6 7 3 4 - - 0.8
20/07:00pm 15.2 15.4 14.1 93 0.6 SE 6 7 3 4 - - 0.8
20/06:30pm 15.4 16.0 14.3 93 0.6 SSE 4 7 2 4 - - 0.8
20/06:00pm 15.3 15.2 14.0 92 0.7 SSE 7 9 4 5 - - 0.6
20/05:30pm 16.0 14.9 14.4 90 0.9 S 13 17 7 9 - - 0.2
20/05:00pm 16.6 15.9 14.2 86 1.4 S 11 15 6 8 - - 0.0
20/04:30pm 16.8 16.0 13.9 83 1.6 SSE 11 15 6 8 - - 0.0
20/04:00pm 17.7 16.8 13.6 77 2.3 S 11 13 6 7 - - 0.0
20/03:30pm 19.0 18.5 12.5 66 3.6 SSE 7 9 4 5 - - 0.0
20/03:00pm 19.3 18.4 10.6 57 4.7 NNE 6 7 3 4 - - 0.0
20/02:30pm 19.8 18.1 10.0 53 5.3 N 9 11 5 6 - - 0.0
20/02:00pm 19.8 18.1 9.7 52 5.4 NE 9 13 5 7 - - 0.0
20/01:30pm 19.8 16.8 7.9 46 6.1 N 13 19 7 10 - - 0.0
20/01:00pm 20.1 16.4 8.1 46 6.2 N 17 20 9 11 - - 0.0
20/12:30pm 19.8 16.0 9.1 50 5.6 N 19 24 10 13 - - 0.0
20/12:00pm 19.7 16.6 9.0 50 5.6 N 15 20 8 11 - - 0.0
20/11:30am 19.0 16.1 9.8 55 4.9 N 15 20 8 11 - - 0.0
20/11:00am 19.3 17.6 9.8 54 5.1 N 9 13 5 7 - - 0.0
20/10:30am 18.8 15.4 9.3 54 5.0 N 17 20 9 11 - - 0.0
20/10:00am 18.0 14.8 8.3 53 5.0 N 15 22 8 12 - - 0.0
20/09:30am 17.7 15.7 8.8 56 4.6 N 9 15 5 8 - - 0.0
20/09:00am 16.8 15.6 8.0 56 4.5 N 4 7 2 4 - - 0.0
20/08:30am 16.7 16.0 8.4 58 4.2 W 2 7 1 4 - - 0.0
20/08:00am 15.7 14.7 8.7 63 3.6 NNE 4 7 2 4 - - 0.0
20/07:30am 14.3 14.3 9.7 74 2.4 CALM 0 7 0 4 - - 0.0
20/07:00am 13.9 13.1 9.7 76 2.2 NE 4 7 2 4 - - 0.0
20/06:30am 13.2 12.0 9.6 79 1.8 NW 6 7 3 4 - - 0.0
20/06:00am 12.7 11.0 9.9 83 1.4 NW 9 11 5 6 - - 0.0
20/05:30am 11.4 10.9 9.5 88 1.0 NNW 2 7 1 4 - - 0.0
20/05:00am 10.9 10.0 9.3 90 0.8 SSW 4 7 2 4 - - 0.0
20/04:30am 12.6 11.5 9.8 83 1.4 NNE 6 11 3 6 - - 0.0
20/04:00am 13.2 10.1 10.2 82 1.6 NNE 17 24 9 13 - - 0.0
20/03:30am 13.7 10.2 10.1 79 1.9 N 19 30 10 16 - - 0.0
20/03:00am 13.6 10.0 10.0 79 1.9 NNE 19 24 10 13 - - 0.0
20/02:30am 13.8 10.1 10.0 78 2.0 NNE 20 28 11 15 - - 0.0
20/02:00am 13.8 11.0 10.0 78 2.0 N 15 20 8 11 - - 0.0
20/01:30am 14.0 12.7 9.8 76 2.2 NNW 7 11 4 6 - - 0.0
20/01:00am 13.7 12.0 9.9 78 2.0 N 9 11 5 6 - - 0.0
20/12:30am 14.6 11.5 10.4 76 2.2 N 17 24 9 13 - - 0.0
20/12:00am 14.9 12.2 10.5 75 2.3 N 15 17 8 9 - - 0.0
 
Date/Time
EDT
Tmp

°C
App
Tmp
°C
Dew
Point
°C
Rel
Hum
%
Delta-T

°C
Wind Press
QNH
hPa
Press
MSL
hPa
Rain
since
9 am
mm
Dir
 
Spd
km/h
Gust
km/h
Spd
kts
Gust
kts
19/11:30pm 14.6 12.8 11.0 79 1.9 N 11 17 6 9 - - 0.0
19/11:00pm 13.5 13.9 11.2 86 1.2 CALM 0 11 0 6 - - 0.0
19/10:30pm 14.0 13.1 11.5 85 1.3 SW 7 7 4 4 - - 0.0
19/10:00pm 14.5 14.6 11.5 82 1.6 NNE 2 7 1 4 - - 0.0

Latest Capital City Observations: Canberra | Sydney | Melbourne | Brisbane | Adelaide | Perth | Hobart | Darwin

Other Formats:

Comma delimited format used in spreadsheet applications
http://www.bom.gov.au/fwo/IDT60901/IDT60901.95972.axf

JavaScript Object Notation format (JSON) in row-major order
http://www.bom.gov.au/fwo/IDT60901/IDT60901.95972.json